Terminal Aerodrome Forecast
Issued by NWS

Home | Current Version | Previous Version | Text Only | Print | Product List | Glossary On
Versions: 1 2 3 4 5 6 7 8 9 10 11 12 13 14 15 16 17 18 19 20 21 22 23 24 25 26 27 28 29 30 31 32 33
000
FTUS43 KLOT 291140
TAFORD
TAF
KORD 291140Z 2912/3018 19014G24KT P6SM BKN150
     FM291430 19020G34KT P6SM BKN120
     FM291600 20023G35KT 5SM -SHRA SCT030 OVC070
      TEMPO 2916/2917 3SM -RAPLSN OVC030
     FM291700 20023G35KT 4SM -SHRA OVC025
     FM291930 21020G31KT P6SM VCSH OVC030
      TEMPO 2923/3001 5SM -SHRA
     FM300100 27012G24KT P6SM BKN035
     FM300500 28011KT P6SM FEW040=

USA.gov is the U.S. government's official web portal to all federal, state and local government web resources and services.